createdAt,value
2023-09-09T00:01:53.406Z,100591.66
2023-09-09T00:04:27.527Z,100590.96
2023-09-09T00:06:55.663Z,100587.55
2023-09-09T00:09:23.827Z,100582.77
2023-09-09T00:11:51.794Z,100585.38
2023-09-09T00:14:25.088Z,100583.02
2023-09-09T00:16:55.294Z,100578.17
2023-09-09T00:19:25.677Z,100580.44
2023-09-09T00:21:56.693Z,100574.86
2023-09-09T00:24:25.018Z,100575.15
2023-09-09T00:27:08.084Z,100576.33
2023-09-09T00:29:40.864Z,100576.61
2023-09-09T00:32:12.060Z,100576.32
2023-09-09T00:34:39.974Z,100574.63
2023-09-09T00:37:11.943Z,100573.08
2023-09-09T00:39:44.008Z,100571.95
2023-09-09T00:42:14.238Z,100571.69
2023-09-09T00:44:45.426Z,100569.09
2023-09-09T00:47:13.536Z,100568.70
2023-09-09T00:49:41.558Z,100566.55
2023-09-09T00:52:17.889Z,100564.13
2023-09-09T00:54:50.510Z,100564.52
2023-09-09T00:57:21.919Z,100563.88
2023-09-09T00:59:54.909Z,100564.98
2023-09-09T01:02:26.484Z,100562.10
2023-09-09T01:05:05.881Z,100559.31
2023-09-09T01:07:49.514Z,100558.73
2023-09-09T01:10:25.295Z,100550.71
2023-09-09T01:12:56.506Z,100551.92
2023-09-09T01:15:40.360Z,100548.59
2023-09-09T01:18:13.737Z,100548.48
2023-09-09T01:20:46.568Z,100545.13
2023-09-09T01:23:15.248Z,100542.52
2023-09-09T01:25:48.338Z,100540.77
2023-09-09T01:28:38.338Z,100537.64
2023-09-09T01:31:11.437Z,100536.97
2023-09-09T01:33:40.748Z,100536.46
2023-09-09T01:36:10.844Z,100531.90
2023-09-09T01:38:43.825Z,100529.77
2023-09-09T01:41:11.711Z,100531.17
2023-09-09T01:43:45.105Z,100527.24
2023-09-09T01:46:20.775Z,100530.41
2023-09-09T01:48:48.815Z,100529.09
2023-09-09T01:51:18.934Z,100522.04
2023-09-09T01:53:47.106Z,100519.94
2023-09-09T01:56:20.017Z,100521.59
2023-09-09T01:58:47.860Z,100516.89
2023-09-09T02:01:16.168Z,100516.79
2023-09-09T02:03:44.707Z,100516.26
2023-09-09T02:06:42.082Z,100515.37
2023-09-09T02:09:11.789Z,100511.45
2023-09-09T02:11:45.417Z,100508.27
2023-09-09T02:14:13.774Z,100508.16
2023-09-09T02:16:45.700Z,100512.56
2023-09-09T02:19:20.984Z,100510.05
2023-09-09T02:21:51.204Z,100511.37
2023-09-09T02:24:20.118Z,100509.69
2023-09-09T02:26:48.375Z,100506.66
2023-09-09T02:29:31.755Z,100505.41
2023-09-09T02:31:59.795Z,100502.53
2023-09-09T02:34:34.007Z,100496.27
2023-09-09T02:37:18.458Z,100493.77
2023-09-09T02:39:50.526Z,100490.67
2023-09-09T02:42:25.609Z,100489.27
2023-09-09T02:44:53.795Z,100492.14
2023-09-09T02:47:22.343Z,100494.10
2023-09-09T02:49:55.118Z,100493.89
2023-09-09T02:52:25.156Z,100492.98
2023-09-09T02:55:08.708Z,100493.36
2023-09-09T02:57:36.822Z,100497.81
2023-09-09T03:00:14.646Z,100500.06
2023-09-09T03:02:50.784Z,100502.48
2023-09-09T03:05:19.471Z,100502.52
2023-09-09T03:07:49.707Z,100505.95
2023-09-09T03:10:23.125Z,100507.52
2023-09-09T03:12:51.270Z,100512.73
2023-09-09T03:15:24.769Z,100514.64
2023-09-09T03:17:53.783Z,100519.95
2023-09-09T03:20:25.123Z,100521.92
2023-09-09T03:23:02.190Z,100521.21
2023-09-09T03:25:30.184Z,100525.06
2023-09-09T03:27:58.443Z,100528.11
2023-09-09T03:30:31.640Z,100529.41
2023-09-09T03:33:07.436Z,100532.71
2023-09-09T03:35:35.686Z,100535.91
2023-09-09T03:38:04.863Z,100534.48
2023-09-09T03:40:37.987Z,100534.96
2023-09-09T03:43:06.874Z,100532.88
2023-09-09T03:45:34.956Z,100531.65
2023-09-09T03:48:05.932Z,100527.14
2023-09-09T03:50:34.752Z,100528.23
2023-09-09T03:53:02.647Z,100529.02
2023-09-09T03:55:31.510Z,100523.95
2023-09-09T03:58:01.753Z,100523.43
2023-09-09T04:00:36.200Z,100524.31
2023-09-09T04:03:07.846Z,100534.65
2023-09-09T04:05:39.709Z,100535.46
2023-09-09T04:08:15.118Z,100538.20
2023-09-09T04:10:43.128Z,100544.01
2023-09-09T04:13:16.396Z,100541.21
2023-09-09T04:15:50.193Z,100540.27
2023-09-09T04:18:24.408Z,100540.80
2023-09-09T04:21:04.467Z,100546.06
2023-09-09T04:23:33.867Z,100545.52
2023-09-09T04:26:02.047Z,100540.51
2023-09-09T04:28:41.714Z,100537.43
2023-09-09T04:31:13.764Z,100539.36
2023-09-09T04:33:47.937Z,100537.29
2023-09-09T04:36:15.953Z,100537.92
2023-09-09T04:38:46.054Z,100539.43
2023-09-09T04:41:14.134Z,100540.52
2023-09-09T04:43:45.774Z,100534.88
2023-09-09T04:46:18.890Z,100533.13
2023-09-09T04:48:50.579Z,100532.69
2023-09-09T04:51:18.505Z,100533.55
2023-09-09T04:53:54.766Z,100526.66
2023-09-09T04:56:22.737Z,100532.52
2023-09-09T04:58:54.623Z,100536.13
2023-09-09T05:01:22.646Z,100536.37
2023-09-09T05:03:55.849Z,100531.98
2023-09-09T05:06:52.199Z,100532.50
2023-09-09T05:09:22.652Z,100536.72
2023-09-09T05:11:54.030Z,100535.78
2023-09-09T05:14:25.122Z,100536.09
2023-09-09T05:16:57.018Z,100537.21
2023-09-09T05:19:28.272Z,100535.21
2023-09-09T05:21:58.953Z,100533.80
2023-09-09T05:24:28.990Z,100533.98
2023-09-09T05:26:57.468Z,100537.02
2023-09-09T05:29:28.511Z,100535.95
2023-09-09T05:31:56.692Z,100537.19
2023-09-09T05:34:24.587Z,100537.03
2023-09-09T05:37:05.948Z,100537.46
2023-09-09T05:39:33.932Z,100540.52
2023-09-09T05:42:06.188Z,100535.39
2023-09-09T05:44:38.939Z,100538.74
2023-09-09T05:47:08.566Z,100540.95
2023-09-09T05:49:40.374Z,100542.36
2023-09-09T05:52:13.212Z,100543.25
2023-09-09T05:54:44.357Z,100543.23
2023-09-09T05:57:14.228Z,100540.67
2023-09-09T05:59:49.578Z,100540.38
2023-09-09T06:02:22.487Z,100541.51
2023-09-09T06:04:55.646Z,100542.54
2023-09-09T06:07:27.259Z,100543.09
2023-09-09T06:10:09.210Z,100543.19
2023-09-09T06:12:45.893Z,100539.42
2023-09-09T06:15:47.015Z,100539.95
2023-09-09T06:18:15.248Z,100541.16
2023-09-09T06:20:49.998Z,100539.73
2023-09-09T06:23:38.612Z,100545.41
2023-09-09T06:44:08.788Z,100589.98
2023-09-09T06:46:42.907Z,100592.09
2023-09-09T06:49:10.777Z,100595.73
2023-09-09T06:51:41.713Z,100597.73
2023-09-09T06:54:22.098Z,100595.72
2023-09-09T06:56:52.397Z,100597.71
2023-09-09T06:59:24.631Z,100605.31
2023-09-09T07:02:07.083Z,100605.45
2023-09-09T07:04:38.345Z,100604.08
2023-09-09T07:07:13.251Z,100613.03
2023-09-09T07:09:53.443Z,100610.81
2023-09-09T07:12:35.312Z,100624.67
2023-09-09T07:15:07.490Z,100621.33
2023-09-09T07:17:38.448Z,100623.33
2023-09-09T07:20:26.429Z,100619.25
2023-09-09T07:22:55.251Z,100631.06
2023-09-09T07:25:33.265Z,100627.54
2023-09-09T07:28:17.105Z,100630.52
2023-09-09T07:30:54.085Z,100628.49
2023-09-09T07:33:29.739Z,100631.70
2023-09-09T07:36:04.723Z,100630.42
2023-09-09T07:38:36.737Z,100637.77
2023-09-09T07:41:05.151Z,100644.30
2023-09-09T07:43:33.350Z,100647.98
2023-09-09T07:46:09.456Z,100644.01
2023-09-09T07:49:03.946Z,100643.35
2023-09-09T07:51:31.677Z,100642.64
2023-09-09T07:54:18.011Z,100649.14
2023-09-09T07:57:04.005Z,100647.88
2023-09-09T07:59:47.434Z,100648.55
2023-09-09T08:02:25.030Z,100654.90
2023-09-09T08:04:59.345Z,100659.16
2023-09-09T08:07:32.140Z,100666.91
2023-09-09T08:10:14.037Z,100662.09
2023-09-09T08:12:47.144Z,100670.69
2023-09-09T08:15:20.878Z,100668.58
2023-09-09T08:18:01.061Z,100672.23
2023-09-09T08:20:28.705Z,100675.67
2023-09-09T08:23:10.347Z,100677.84
2023-09-09T08:25:57.170Z,100675.48
2023-09-09T08:28:37.200Z,100678.05
2023-09-09T08:31:12.686Z,100675.73
2023-09-09T08:33:49.017Z,100677.39
2023-09-09T08:36:38.894Z,100680.55
2023-09-09T08:39:21.918Z,100679.28
2023-09-09T08:42:20.301Z,100681.89
2023-09-09T08:45:00.780Z,100681.52
2023-09-09T08:47:53.490Z,100687.84
2023-09-09T08:50:21.863Z,100690.86
2023-09-09T08:52:55.618Z,100696.77
2023-09-09T08:55:30.484Z,100691.75
2023-09-09T08:58:04.051Z,100706.73
2023-09-09T09:00:34.535Z,100707.81
2023-09-09T09:03:09.036Z,100716.08
2023-09-09T09:05:39.847Z,100710.02
2023-09-09T09:08:10.464Z,100719.20
2023-09-09T09:10:41.702Z,100714.52
2023-09-09T09:13:09.825Z,100712.95
2023-09-09T09:15:41.560Z,100714.36
2023-09-09T09:18:11.855Z,100721.79
2023-09-09T09:20:48.918Z,100723.71
2023-09-09T09:23:17.838Z,100732.86
2023-09-09T09:25:52.885Z,100724.81
2023-09-09T09:28:26.067Z,100727.11
2023-09-09T09:30:53.656Z,100731.58
2023-09-09T09:33:30.166Z,100730.48
2023-09-09T09:36:05.338Z,100725.57
2023-09-09T09:38:46.106Z,100728.09
2023-09-09T09:41:19.144Z,100725.82
2023-09-09T09:43:50.965Z,100726.16
2023-09-09T09:46:22.577Z,100728.14
2023-09-09T09:48:49.907Z,100736.32
2023-09-09T09:51:24.493Z,100750.96
2023-09-09T09:53:54.646Z,100755.02
2023-09-09T09:56:25.865Z,100746.65
2023-09-09T09:58:58.238Z,100751.03
2023-09-09T10:01:27.539Z,100757.45
2023-09-09T10:03:58.566Z,100751.70
2023-09-09T10:06:29.373Z,100755.60
2023-09-09T10:09:04.267Z,100753.48
2023-09-09T10:11:41.127Z,100756.91
2023-09-09T10:14:13.400Z,100766.00
2023-09-09T10:16:43.239Z,100768.00
2023-09-09T10:19:12.010Z,100758.41
2023-09-09T10:21:45.198Z,100762.32
2023-09-09T10:24:12.991Z,100772.69
2023-09-09T10:26:48.252Z,100769.86
2023-09-09T10:29:20.945Z,100776.31
2023-09-09T10:31:49.165Z,100773.16
2023-09-09T10:34:20.504Z,100784.33
2023-09-09T10:37:07.653Z,100793.94
2023-09-09T10:39:40.887Z,100786.45
2023-09-09T10:42:13.424Z,100784.80
2023-09-09T10:44:41.784Z,100786.52
2023-09-09T10:47:28.469Z,100785.12
2023-09-09T10:50:05.098Z,100797.64
2023-09-09T10:52:56.741Z,100800.37
2023-09-09T10:55:35.611Z,100800.85
2023-09-09T11:00:11.282Z,100795.02
2023-09-09T11:03:47.898Z,100803.19
2023-09-09T11:06:42.497Z,100800.38
2023-09-09T11:09:20.700Z,100807.52
2023-09-09T11:11:54.530Z,100809.09
2023-09-09T11:14:24.889Z,100803.26
2023-09-09T11:16:57.641Z,100805.86
2023-09-09T11:19:25.183Z,100803.48
2023-09-09T11:21:59.937Z,100798.24
2023-09-09T11:24:31.121Z,100804.08
2023-09-09T11:27:06.402Z,100804.89
2023-09-09T11:29:40.232Z,100803.19
2023-09-09T11:32:19.000Z,100803.15
2023-09-09T11:34:51.145Z,100811.01
2023-09-09T11:37:19.044Z,100811.05
2023-09-09T11:39:50.926Z,100805.13
2023-09-09T11:42:22.271Z,100813.65
2023-09-09T11:44:55.110Z,100814.14
2023-09-09T11:47:23.891Z,100814.35
2023-09-09T11:50:10.367Z,100815.36
2023-09-09T11:52:42.053Z,100817.65
2023-09-09T12:13:54.346Z,100834.52
2023-09-09T12:16:24.271Z,100830.75
2023-09-09T12:18:56.513Z,100836.26
2023-09-09T12:21:25.017Z,100839.91
2023-09-09T12:24:07.949Z,100829.35
2023-09-09T12:26:37.710Z,100838.49
2023-09-09T12:29:12.795Z,100848.75
2023-09-09T12:31:50.822Z,100841.93
2023-09-09T12:34:25.983Z,100846.66
2023-09-09T12:36:58.905Z,100850.02
2023-09-09T12:39:54.250Z,100851.08
2023-09-09T12:42:25.971Z,100846.92
2023-09-09T12:44:55.615Z,100857.09
2023-09-09T12:47:25.729Z,100853.10
2023-09-09T12:49:59.480Z,100852.14
2023-09-09T12:52:36.635Z,100850.27
2023-09-09T12:55:07.993Z,100852.30
2023-09-09T12:57:42.303Z,100854.62
2023-09-09T13:00:25.918Z,100860.35
2023-09-09T13:03:18.674Z,100862.73
2023-09-09T13:05:50.223Z,100866.31
2023-09-09T13:08:27.589Z,100867.23
2023-09-09T13:11:06.267Z,100870.36
2023-09-09T13:13:34.294Z,100871.17
2023-09-09T13:16:04.116Z,100869.88
2023-09-09T13:18:36.699Z,100870.42
2023-09-09T13:21:11.496Z,100870.68
2023-09-09T13:23:44.629Z,100877.30
2023-09-09T13:26:16.350Z,100882.48
2023-09-09T13:28:48.857Z,100878.85
2023-09-09T13:31:18.987Z,100887.86
2023-09-09T13:34:11.741Z,100883.80
2023-09-09T13:36:44.110Z,100889.13
2023-09-09T13:39:13.403Z,100893.98
2023-09-09T13:41:50.634Z,100895.02
2023-09-09T13:44:42.961Z,100889.05
2023-09-09T13:47:30.102Z,100895.16
2023-09-09T13:50:24.362Z,100900.05
2023-09-09T13:52:55.697Z,100901.60
2023-09-09T13:55:23.349Z,100901.48
2023-09-09T13:57:52.962Z,100903.10
2023-09-09T14:00:23.147Z,100902.19
2023-09-09T14:02:51.138Z,100908.89
2023-09-09T14:05:31.943Z,100918.27
2023-09-09T14:08:03.624Z,100914.95
2023-09-09T14:10:36.584Z,100914.97
2023-09-09T14:13:04.738Z,100917.02
2023-09-09T14:15:37.055Z,100922.61
2023-09-09T14:18:07.871Z,100922.52
2023-09-09T14:20:37.297Z,100927.23
2023-09-09T14:23:05.368Z,100923.66
2023-09-09T14:25:46.947Z,100921.48
2023-09-09T14:28:16.113Z,100925.90
2023-09-09T14:30:45.806Z,100924.46
2023-09-09T14:33:18.906Z,100929.35
2023-09-09T14:35:47.930Z,100927.63
2023-09-09T14:38:18.035Z,100934.89
2023-09-09T14:40:50.712Z,100937.79
2023-09-09T14:43:18.488Z,100945.41
2023-09-09T14:45:46.241Z,100946.45
